createdAt,value
2018-07-02T00:00:41.443Z,51.34
2018-07-02T00:03:09.495Z,52.04
2018-07-02T00:05:49.052Z,52.04
2018-07-02T00:19:41.997Z,53.06
2018-07-02T00:22:10.337Z,53.19
2018-07-02T00:24:38.397Z,53.84
2018-07-02T00:27:06.571Z,54.09
2018-07-02T00:29:34.698Z,53.96
2018-07-02T00:32:02.805Z,53.89
2018-07-02T00:34:30.904Z,54.02
2018-07-02T00:36:58.948Z,54.17
2018-07-02T00:39:27.012Z,54.41
2018-07-02T00:41:55.075Z,54.15
2018-07-02T00:44:23.132Z,54.58
2018-07-02T00:46:51.173Z,54.59
2018-07-02T00:49:19.235Z,54.68
2018-07-02T00:51:47.284Z,54.51
2018-07-02T00:54:15.371Z,54.72
2018-07-02T00:56:43.416Z,55.44
2018-07-02T00:59:11.548Z,55.27
2018-07-02T01:01:39.638Z,55.46
2018-07-02T01:04:07.764Z,55.72
2018-07-02T01:06:35.819Z,55.56
2018-07-02T01:09:05.192Z,55.42
2018-07-02T01:11:33.284Z,55.85
2018-07-02T01:14:01.325Z,56.18
2018-07-02T01:16:29.372Z,56.49
2018-07-02T01:18:57.428Z,56.25
2018-07-02T01:21:25.496Z,56.25
2018-07-02T01:23:53.571Z,56.54
2018-07-02T01:26:21.623Z,57.19
2018-07-02T01:28:49.673Z,57.50
2018-07-02T01:31:17.724Z,57.29
2018-07-02T01:33:45.779Z,57.65
2018-07-02T01:36:13.828Z,57.33
2018-07-02T01:38:41.916Z,57.56
2018-07-02T01:41:09.963Z,57.67
2018-07-02T01:43:38.028Z,57.89
2018-07-02T01:46:06.084Z,58.16
2018-07-02T01:48:34.134Z,58.09
2018-07-02T01:51:02.179Z,57.99
2018-07-02T01:53:30.228Z,58.06
2018-07-02T01:55:58.320Z,58.21
2018-07-02T01:58:26.372Z,58.64
2018-07-02T02:00:54.423Z,58.97
2018-07-02T02:03:22.469Z,58.72
2018-07-02T02:05:50.520Z,58.82
2018-07-02T02:08:18.553Z,58.75
2018-07-02T02:10:46.607Z,59.28
2018-07-02T02:13:14.652Z,59.40
2018-07-02T02:15:42.708Z,59.20
2018-07-02T02:18:10.754Z,59.66
2018-07-02T02:20:38.828Z,59.41
2018-07-02T02:23:06.860Z,59.37
2018-07-02T02:25:34.921Z,59.29
2018-07-02T02:28:02.979Z,59.92
2018-07-02T02:30:31.042Z,59.61
2018-07-02T02:32:59.088Z,60.12
2018-07-02T02:35:27.154Z,60.35
2018-07-02T02:37:55.188Z,59.81
2018-07-02T02:40:23.244Z,60.07
2018-07-02T02:42:51.296Z,60.04
2018-07-02T02:45:19.369Z,60.11
2018-07-02T02:47:47.461Z,60.34
2018-07-02T02:50:15.458Z,60.42
2018-07-02T02:52:43.499Z,60.64
2018-07-02T02:55:11.540Z,60.30
2018-07-02T02:57:39.593Z,60.58
2018-07-02T03:00:07.640Z,60.16
2018-07-02T03:02:35.680Z,60.92
2018-07-02T03:05:03.728Z,61.28
2018-07-02T03:07:31.763Z,61.37
2018-07-02T03:09:59.817Z,60.71
2018-07-02T03:12:27.856Z,60.75
2018-07-02T03:14:55.907Z,61.44
2018-07-02T03:17:23.950Z,61.63
2018-07-02T03:19:52.053Z,61.29
2018-07-02T03:22:20.120Z,61.19
2018-07-02T03:24:48.173Z,61.19
2018-07-02T03:27:16.213Z,61.13
2018-07-02T03:29:44.249Z,61.30
2018-07-02T03:32:12.319Z,61.34
2018-07-02T03:34:40.364Z,61.71
2018-07-02T03:37:08.404Z,61.81
2018-07-02T03:39:36.489Z,62.19
2018-07-02T03:42:04.528Z,62.14
2018-07-02T03:44:32.591Z,62.20
2018-07-02T03:47:00.658Z,62.40
2018-07-02T03:49:28.703Z,61.89
2018-07-02T03:51:56.786Z,62.55
2018-07-02T03:54:24.823Z,62.18
2018-07-02T03:56:52.908Z,62.50
2018-07-02T03:59:20.943Z,62.48
2018-07-02T04:01:48.993Z,62.53
2018-07-02T04:04:17.077Z,62.71
2018-07-02T04:06:45.143Z,62.48
2018-07-02T04:09:14.099Z,62.48
2018-07-02T04:11:42.481Z,62.09
2018-07-02T04:14:10.565Z,62.20
2018-07-02T04:16:39.041Z,62.30
2018-07-02T04:19:10.073Z,62.33
2018-07-02T04:21:38.962Z,62.58
2018-07-02T04:24:07.327Z,62.58
2018-07-02T04:26:35.396Z,62.38
2018-07-02T04:29:03.685Z,62.44
2018-07-02T04:31:31.727Z,62.33
2018-07-02T04:33:59.839Z,62.36
2018-07-02T04:36:28.088Z,63.10
2018-07-02T04:38:56.169Z,64.85
2018-07-02T04:41:24.204Z,64.07
2018-07-02T04:43:52.412Z,65.74
2018-07-02T04:46:20.512Z,63.70
2018-07-02T04:48:48.581Z,64.02
2018-07-02T04:51:16.712Z,62.86
2018-07-02T04:53:44.820Z,62.72
2018-07-02T04:56:12.852Z,62.15
2018-07-02T04:58:41.132Z,62.78
2018-07-02T05:01:09.912Z,62.88
2018-07-02T05:03:38.191Z,62.76
2018-07-02T05:06:06.783Z,62.51
2018-07-02T05:08:34.824Z,62.69
2018-07-02T05:11:03.120Z,62.32
2018-07-02T05:13:31.203Z,62.07
2018-07-02T05:15:59.268Z,61.51
2018-07-02T05:18:27.359Z,61.42
2018-07-02T05:20:55.400Z,60.19
2018-07-02T05:23:23.444Z,60.19
2018-07-02T05:25:51.546Z,59.27
2018-07-02T05:28:19.621Z,58.80
2018-07-02T05:30:47.672Z,57.04
2018-07-02T05:33:15.722Z,56.90
2018-07-02T05:35:43.790Z,54.68
2018-07-02T05:38:11.828Z,53.91
2018-07-02T05:40:39.869Z,53.65
2018-07-02T05:43:07.908Z,53.01
2018-07-02T05:45:35.944Z,51.75
2018-07-02T05:48:04.047Z,52.06
2018-07-02T05:50:32.088Z,50.53
2018-07-02T05:53:00.140Z,48.95
2018-07-02T05:55:28.284Z,49.78
2018-07-02T05:57:56.336Z,48.89
2018-07-02T06:00:24.425Z,48.52
2018-07-02T06:02:52.456Z,48.26
2018-07-02T06:05:20.492Z,47.56
2018-07-02T06:07:48.693Z,46.04
2018-07-02T06:10:16.729Z,45.13
2018-07-02T06:12:44.784Z,43.61
2018-07-02T06:15:12.832Z,43.94
2018-07-02T06:17:40.891Z,43.67
2018-07-02T06:20:08.944Z,42.10
2018-07-02T06:22:36.983Z,42.77
2018-07-02T06:25:05.367Z,41.12
2018-07-02T06:27:33.416Z,41.26
2018-07-02T06:30:01.469Z,41.73
2018-07-02T06:32:29.504Z,40.32
2018-07-02T06:34:57.571Z,40.43
2018-07-02T06:37:25.632Z,40.26
2018-07-02T06:39:53.689Z,40.39
2018-07-02T06:42:21.727Z,39.49
2018-07-02T06:44:49.775Z,38.72
2018-07-02T06:47:17.885Z,38.27
2018-07-02T06:49:45.932Z,39.36
2018-07-02T06:52:13.990Z,38.08
2018-07-02T06:54:42.071Z,38.88
2018-07-02T06:57:10.136Z,38.21
2018-07-02T06:59:38.180Z,36.46
2018-07-02T07:02:06.269Z,36.58
2018-07-02T07:04:34.323Z,36.84
2018-07-02T07:07:02.408Z,36.68
2018-07-02T07:09:30.787Z,35.81
2018-07-02T07:11:58.861Z,35.06
2018-07-02T07:14:26.905Z,34.47
2018-07-02T07:16:55.016Z,34.20
2018-07-02T07:19:23.144Z,34.36
2018-07-02T07:21:51.224Z,34.19
2018-07-02T07:24:19.320Z,34.39
2018-07-02T07:26:47.385Z,32.95
2018-07-02T07:29:15.464Z,32.76
2018-07-02T07:31:43.564Z,31.64
2018-07-02T07:34:11.636Z,31.47
2018-07-02T07:36:39.701Z,30.78
2018-07-02T07:39:09.072Z,31.26
2018-07-02T07:41:37.188Z,31.49
2018-07-02T07:44:05.285Z,30.44
2018-07-02T07:46:33.345Z,29.50
2018-07-02T07:49:01.405Z,29.55
2018-07-02T07:51:29.447Z,28.41
2018-07-02T07:53:57.486Z,27.73
2018-07-02T07:56:25.557Z,27.90
2018-07-02T07:58:53.692Z,27.27
2018-07-02T08:01:21.894Z,27.21
2018-07-02T08:03:50.080Z,27.38
2018-07-02T08:06:18.343Z,26.65
2018-07-02T08:08:46.384Z,26.38
2018-07-02T08:11:14.449Z,26.45
2018-07-02T08:13:42.517Z,26.51
2018-07-02T08:16:10.589Z,25.60
2018-07-02T08:18:38.698Z,25.40
2018-07-02T08:21:06.767Z,25.43
2018-07-02T08:23:34.821Z,25.35
2018-07-02T08:26:02.945Z,24.40
2018-07-02T08:28:31.037Z,24.71
2018-07-02T08:30:59.084Z,25.04
2018-07-02T08:33:27.236Z,23.77
2018-07-02T08:35:55.295Z,24.70
2018-07-02T08:38:23.340Z,24.45
2018-07-02T08:40:51.641Z,23.79
2018-07-02T08:43:19.692Z,23.17
2018-07-02T08:45:47.752Z,23.20
2018-07-02T08:48:15.792Z,23.67
2018-07-02T08:50:43.894Z,22.99
2018-07-02T08:53:11.940Z,22.30
2018-07-02T08:55:39.996Z,22.38
2018-07-02T08:58:08.076Z,22.50
2018-07-02T09:00:36.111Z,22.17
2018-07-02T09:03:04.294Z,22.49
2018-07-02T09:05:32.351Z,23.12
2018-07-02T09:08:00.406Z,21.89
2018-07-02T09:10:28.645Z,21.89
2018-07-02T09:12:56.508Z,21.89
2018-07-02T09:15:24.569Z,21.92
2018-07-02T09:17:52.632Z,22.80
2018-07-02T09:20:20.680Z,22.61
2018-07-02T09:22:48.852Z,22.03
2018-07-02T09:25:16.812Z,21.75
2018-07-02T09:27:44.843Z,21.54
2018-07-02T09:30:12.917Z,21.16
2018-07-02T09:32:40.984Z,21.65
2018-07-02T09:35:09.053Z,21.70
2018-07-02T09:37:37.104Z,22.00
2018-07-02T09:40:05.160Z,21.45
2018-07-02T09:42:33.324Z,20.82
2018-07-02T09:45:01.392Z,21.23
2018-07-02T09:47:29.631Z,21.04
2018-07-02T09:49:57.684Z,20.98
2018-07-02T09:52:25.759Z,21.30
2018-07-02T09:54:53.820Z,21.09
2018-07-02T09:57:21.882Z,20.22
2018-07-02T09:59:49.916Z,20.33
2018-07-02T10:02:18.003Z,20.53
2018-07-02T10:04:46.055Z,20.13
2018-07-02T10:07:14.125Z,21.08
2018-07-02T10:09:42.191Z,20.76
2018-07-02T10:12:10.257Z,21.17
2018-07-02T10:14:38.293Z,21.05
2018-07-02T10:17:06.342Z,21.40
2018-07-02T10:19:34.383Z,20.56
2018-07-02T10:22:02.449Z,21.07
2018-07-02T10:24:30.492Z,21.50
2018-07-02T10:26:58.563Z,21.98
2018-07-02T10:29:26.621Z,21.98
2018-07-02T10:31:54.736Z,21.83
2018-07-02T10:34:22.820Z,22.61
2018-07-02T10:36:50.936Z,21.56
2018-07-02T10:39:18.971Z,22.57
2018-07-02T10:41:47.069Z,22.34
2018-07-02T10:44:15.131Z,21.58
2018-07-02T10:46:43.220Z,22.10
2018-07-02T10:49:11.253Z,21.86
2018-07-02T10:51:39.376Z,21.54
2018-07-02T10:54:07.405Z,20.17
2018-07-02T10:56:35.504Z,20.63
2018-07-02T10:59:03.968Z,20.81
2018-07-02T11:01:32.040Z,19.71
2018-07-02T11:04:00.093Z,20.57
2018-07-02T11:06:28.156Z,18.74
2018-07-02T11:08:56.224Z,19.55
2018-07-02T11:11:24.361Z,19.37
2018-07-02T11:13:52.405Z,19.23
2018-07-02T11:16:20.474Z,19.38
2018-07-02T11:18:48.528Z,19.32
2018-07-02T11:21:16.584Z,19.97
2018-07-02T11:23:44.928Z,19.07
2018-07-02T11:26:12.962Z,20.46
2018-07-02T11:28:41.017Z,19.00
2018-07-02T11:31:09.081Z,19.51
2018-07-02T11:33:37.120Z,19.80
2018-07-02T11:36:05.231Z,19.42
2018-07-02T11:38:33.286Z,20.19
2018-07-02T11:41:01.356Z,20.80
2018-07-02T11:43:29.415Z,20.22
2018-07-02T11:45:57.498Z,20.90
2018-07-02T11:48:25.592Z,20.92
2018-07-02T11:50:53.664Z,20.12
2018-07-02T11:53:21.724Z,20.13
2018-07-02T11:55:49.778Z,20.64
2018-07-02T11:58:17.859Z,20.08
2018-07-02T12:00:45.896Z,19.68
2018-07-02T12:03:14.113Z,20.39
2018-07-02T12:05:42.355Z,20.54
2018-07-02T12:08:10.440Z,20.75
2018-07-02T12:10:38.506Z,20.72
2018-07-02T12:13:06.593Z,20.26
2018-07-02T12:15:34.698Z,20.26
2018-07-02T12:18:02.748Z,19.75
2018-07-02T12:20:30.785Z,20.41
2018-07-02T12:22:58.865Z,20.24
2018-07-02T12:25:26.899Z,20.63
2018-07-02T12:27:55.036Z,19.97
2018-07-02T12:30:23.098Z,19.89
2018-07-02T12:32:51.164Z,20.31
2018-07-02T12:35:19.302Z,20.43
2018-07-02T12:37:47.408Z,20.35
2018-07-02T12:40:15.468Z,21.22
2018-07-02T12:42:43.536Z,21.63
2018-07-02T12:45:11.608Z,21.18
2018-07-02T12:47:39.688Z,19.81
2018-07-02T12:50:07.932Z,20.82
2018-07-02T12:52:35.976Z,20.46
2018-07-02T12:55:04.046Z,20.67
2018-07-02T12:57:32.154Z,20.76
2018-07-02T13:00:00.214Z,20.25
2018-07-02T13:02:28.292Z,20.57
2018-07-02T13:04:56.349Z,20.24
2018-07-02T13:07:24.530Z,20.27
2018-07-02T13:09:52.585Z,19.85
2018-07-02T13:12:20.680Z,20.04
2018-07-02T13:14:48.743Z,19.73
2018-07-02T13:17:16.809Z,18.91
2018-07-02T13:19:44.880Z,19.17
2018-07-02T13:22:12.908Z,19.71
2018-07-02T13:24:41.094Z,18.92
2018-07-02T13:27:09.087Z,19.55
2018-07-02T13:29:37.147Z,18.79
2018-07-02T13:32:05.235Z,19.99
2018-07-02T13:34:33.311Z,19.67
2018-07-02T13:37:01.365Z,19.54
2018-07-02T13:39:29.444Z,20.11
2018-07-02T13:41:57.521Z,20.22
2018-07-02T13:44:25.620Z,19.81
2018-07-02T13:46:53.692Z,19.48
2018-07-02T13:49:21.747Z,20.27
2018-07-02T13:51:49.798Z,19.72
2018-07-02T13:54:17.860Z,19.89
2018-07-02T13:56:45.936Z,19.66
2018-07-02T13:59:13.998Z,19.40
2018-07-02T14:01:42.040Z,19.81
2018-07-02T14:04:10.109Z,20.02
2018-07-02T14:06:38.148Z,20.20
2018-07-02T14:09:08.552Z,20.07
2018-07-02T14:11:36.705Z,19.05
2018-07-02T14:14:04.810Z,18.75
2018-07-02T14:16:32.860Z,19.72
2018-07-02T14:19:01.016Z,19.63
2018-07-02T14:21:29.176Z,19.68
2018-07-02T14:23:57.356Z,18.94
2018-07-02T14:26:25.444Z,19.30
2018-07-02T14:28:53.837Z,18.54
2018-07-02T14:31:21.880Z,19.79
2018-07-02T14:33:49.943Z,19.69
2018-07-02T14:36:18.015Z,19.45
2018-07-02T14:38:46.072Z,19.67
2018-07-02T14:41:14.196Z,18.15
2018-07-02T14:43:42.249Z,18.61
2018-07-02T14:46:10.295Z,18.74
2018-07-02T14:48:38.381Z,19.37
2018-07-02T14:51:06.484Z,18.58
2018-07-02T14:53:34.532Z,18.94
2018-07-02T14:56:02.685Z,19.53
2018-07-02T14:58:30.955Z,19.00
2018-07-02T15:00:59.217Z,19.52
2018-07-02T15:03:27.500Z,18.41
2018-07-02T15:05:55.601Z,18.89
2018-07-02T15:08:23.872Z,19.15
2018-07-02T15:10:51.983Z,18.91
2018-07-02T15:13:20.093Z,18.91
2018-07-02T15:15:48.149Z,19.32
2018-07-02T15:18:16.298Z,19.41
2018-07-02T15:20:44.298Z,19.16
2018-07-02T15:23:12.668Z,19.71
2018-07-02T15:25:40.752Z,19.71
2018-07-02T15:28:08.796Z,19.20
2018-07-02T15:30:36.893Z,18.53
2018-07-02T15:33:04.992Z,19.73
2018-07-02T15:35:33.052Z,19.19
2018-07-02T15:38:01.127Z,19.26
2018-07-02T15:40:29.291Z,19.58
2018-07-02T15:42:57.336Z,19.37
2018-07-02T15:45:25.384Z,19.19
2018-07-02T15:47:53.428Z,19.08
2018-07-02T15:50:21.480Z,18.99
2018-07-02T15:52:49.572Z,20.21
2018-07-02T15:55:17.633Z,19.08
2018-07-02T15:57:45.695Z,20.55
2018-07-02T16:00:14.144Z,20.13
2018-07-02T16:02:42.175Z,19.97
2018-07-02T16:05:10.279Z,19.67
2018-07-02T16:07:38.356Z,19.85
2018-07-02T16:10:06.433Z,20.54
2018-07-02T16:12:34.496Z,21.29
2018-07-02T16:15:02.569Z,22.00
2018-07-02T16:17:30.702Z,23.73
2018-07-02T16:19:58.686Z,24.16
2018-07-02T16:22:26.823Z,23.44
2018-07-02T16:24:54.872Z,25.13
2018-07-02T16:27:22.929Z,26.63
2018-07-02T16:29:50.974Z,25.29
2018-07-02T16:32:19.047Z,26.29
2018-07-02T16:34:47.128Z,27.27
2018-07-02T16:37:15.180Z,28.36
2018-07-02T16:39:43.259Z,28.20
2018-07-02T16:42:11.328Z,28.69
2018-07-02T16:44:39.371Z,29.77
2018-07-02T16:47:07.472Z,29.50
2018-07-02T16:49:35.543Z,28.92
2018-07-02T16:52:03.609Z,29.83
2018-07-02T16:54:31.648Z,30.10
2018-07-02T16:56:59.709Z,30.45
2018-07-02T16:59:27.813Z,29.57
2018-07-02T17:01:55.860Z,30.33
2018-07-02T17:04:23.903Z,30.96
2018-07-02T17:06:51.944Z,30.34
2018-07-02T17:09:19.985Z,30.89
2018-07-02T17:11:48.067Z,31.13
2018-07-02T17:14:16.112Z,31.67
2018-07-02T17:16:44.219Z,31.97
2018-07-02T17:19:12.271Z,31.52
2018-07-02T17:21:40.318Z,31.64
2018-07-02T17:24:08.361Z,32.46
2018-07-02T17:26:36.492Z,32.16
2018-07-02T17:29:04.532Z,32.56
2018-07-02T17:31:32.627Z,32.76
2018-07-02T17:34:00.685Z,32.50
2018-07-02T17:36:28.735Z,33.40
2018-07-02T17:38:56.844Z,32.66
2018-07-02T17:41:24.896Z,33.13
2018-07-02T17:43:53.328Z,32.98
2018-07-02T17:46:22.512Z,33.06
2018-07-02T17:48:50.654Z,33.02
2018-07-02T17:51:18.723Z,33.91
2018-07-02T17:53:46.812Z,33.10
2018-07-02T17:56:14.870Z,32.84
2018-07-02T17:58:42.925Z,33.95
2018-07-02T18:01:11.050Z,33.55
2018-07-02T18:03:39.071Z,33.09
2018-07-02T18:06:07.128Z,34.19
2018-07-02T18:08:35.172Z,33.28
2018-07-02T18:11:03.292Z,33.16
2018-07-02T18:13:31.508Z,33.84
2018-07-02T18:15:59.636Z,33.92
2018-07-02T18:18:27.714Z,32.82
2018-07-02T18:20:55.769Z,33.28
2018-07-02T18:23:23.848Z,34.04
2018-07-02T18:25:51.928Z,33.49
2018-07-02T18:28:19.975Z,34.08
2018-07-02T18:30:48.018Z,33.12
2018-07-02T18:33:16.125Z,33.20
2018-07-02T18:35:44.201Z,33.81
2018-07-02T18:38:12.236Z,34.10
2018-07-02T18:40:40.276Z,33.47
2018-07-02T18:43:08.316Z,33.83
2018-07-02T18:45:36.368Z,34.04
2018-07-02T18:48:04.415Z,34.24
2018-07-02T18:50:32.461Z,34.31
2018-07-02T18:53:00.587Z,34.38
2018-07-02T18:55:28.674Z,34.73
2018-07-02T18:57:56.752Z,33.97
2018-07-02T19:00:24.874Z,33.82
2018-07-02T19:02:52.965Z,34.17
2018-07-02T19:05:21.035Z,33.95
2018-07-02T19:07:49.420Z,34.51
2018-07-02T19:10:17.492Z,33.86
2018-07-02T19:12:45.560Z,34.02
2018-07-02T19:15:13.612Z,33.89
2018-07-02T19:17:41.684Z,34.43
2018-07-02T19:20:09.771Z,34.09
2018-07-02T19:22:37.833Z,34.30
2018-07-02T19:25:06.500Z,34.17
2018-07-02T19:27:34.584Z,34.14
2018-07-02T19:30:02.647Z,34.56
2018-07-02T19:32:30.713Z,34.88
2018-07-02T19:34:58.760Z,34.22
2018-07-02T19:37:26.866Z,34.89
2018-07-02T19:39:54.928Z,34.64
2018-07-02T19:42:22.967Z,34.96
2018-07-02T19:44:51.019Z,34.58
2018-07-02T19:47:19.173Z,34.34
2018-07-02T19:49:47.304Z,35.07
2018-07-02T19:52:15.548Z,34.97
2018-07-02T19:54:43.654Z,34.93
2018-07-02T19:57:11.741Z,35.08
2018-07-02T19:59:39.795Z,35.18
2018-07-02T20:02:07.876Z,35.10
2018-07-02T20:04:35.935Z,35.51
2018-07-02T20:07:04.092Z,35.54
2018-07-02T20:09:32.078Z,34.82
2018-07-02T20:12:00.161Z,35.56
2018-07-02T20:14:28.224Z,35.96
2018-07-02T20:16:56.293Z,36.15
2018-07-02T20:19:24.369Z,36.20
2018-07-02T20:21:52.425Z,36.39
2018-07-02T20:24:20.505Z,36.88
2018-07-02T20:26:48.620Z,36.84
2018-07-02T20:29:16.936Z,37.04
2018-07-02T20:31:45.046Z,36.88
2018-07-02T20:34:13.060Z,37.20
2018-07-02T20:36:41.100Z,37.63
2018-07-02T20:39:10.555Z,37.81
2018-07-02T20:41:38.648Z,37.90
2018-07-02T20:44:06.704Z,38.33
2018-07-02T20:46:35.555Z,38.56
2018-07-02T20:49:04.091Z,38.82
2018-07-02T20:51:32.430Z,39.12
2018-07-02T20:54:00.722Z,39.58
2018-07-02T20:56:28.753Z,40.08
2018-07-02T20:58:56.815Z,40.28
2018-07-02T21:01:24.929Z,40.78
2018-07-02T21:03:52.924Z,40.39
2018-07-02T21:06:21.252Z,41.10
2018-07-02T21:08:49.297Z,41.54
2018-07-02T21:11:17.351Z,41.47
2018-07-02T21:13:45.405Z,41.84
2018-07-02T21:16:13.432Z,42.18
2018-07-02T21:18:41.483Z,43.15
2018-07-02T21:21:09.553Z,42.69
2018-07-02T21:23:37.571Z,42.89
2018-07-02T21:26:05.680Z,43.24
2018-07-02T21:28:33.719Z,44.12
2018-07-02T21:31:01.759Z,43.76
2018-07-02T21:33:29.808Z,43.98
2018-07-02T21:35:57.856Z,44.85
2018-07-02T21:38:25.892Z,44.35
2018-07-02T21:40:53.953Z,45.31
2018-07-02T21:43:21.996Z,44.73
2018-07-02T21:45:50.072Z,45.57
2018-07-02T21:48:18.131Z,45.29
2018-07-02T21:50:46.153Z,45.63
2018-07-02T21:53:14.188Z,45.48
2018-07-02T21:55:42.228Z,46.31
2018-07-02T21:58:10.261Z,46.40
2018-07-02T22:00:42.481Z,46.41
2018-07-02T22:03:10.524Z,46.63
2018-07-02T22:05:38.558Z,46.74
2018-07-02T22:08:06.599Z,47.14
2018-07-02T22:10:34.645Z,47.44
2018-07-02T22:13:02.943Z,47.41
2018-07-02T22:15:30.976Z,47.73
2018-07-02T22:17:59.009Z,47.90
2018-07-02T22:20:27.049Z,48.16
2018-07-02T22:22:55.077Z,47.69
2018-07-02T22:25:23.236Z,48.46
2018-07-02T22:27:51.233Z,48.16
2018-07-02T22:30:19.301Z,48.49
2018-07-02T22:32:47.335Z,48.23
2018-07-02T22:35:15.383Z,48.73
2018-07-02T22:37:43.425Z,49.49
2018-07-02T22:40:12.637Z,49.49
2018-07-02T22:42:40.661Z,49.65
2018-07-02T22:45:08.725Z,49.77
2018-07-02T22:47:36.936Z,50.06
2018-07-02T22:50:05.020Z,49.99
2018-07-02T22:52:33.044Z,50.20
2018-07-02T22:55:01.072Z,50.99
2018-07-02T22:57:29.112Z,50.89
2018-07-02T22:59:57.167Z,50.88
2018-07-02T23:02:25.206Z,51.15
2018-07-02T23:04:53.244Z,51.14
2018-07-02T23:07:21.273Z,51.34
2018-07-02T23:09:49.320Z,51.30
2018-07-02T23:12:17.348Z,51.47
2018-07-02T23:14:45.433Z,52.04
2018-07-02T23:17:13.482Z,51.95
2018-07-02T23:19:41.520Z,52.34
2018-07-02T23:22:09.548Z,52.75
2018-07-02T23:24:37.596Z,52.79
2018-07-02T23:27:05.639Z,52.50
2018-07-02T23:29:33.700Z,52.79
2018-07-02T23:32:01.720Z,53.03
2018-07-02T23:34:29.828Z,53.17
2018-07-02T23:36:57.867Z,53.28
2018-07-02T23:39:25.899Z,53.46
2018-07-02T23:41:53.931Z,53.66
2018-07-02T23:44:21.973Z,53.58
2018-07-02T23:46:50.036Z,54.54
2018-07-02T23:49:18.092Z,54.42
2018-07-02T23:51:46.119Z,54.53
2018-07-02T23:54:14.186Z,54.49
2018-07-02T23:56:42.229Z,55.07
2018-07-02T23:59:10.265Z,54.81
